sensor_id;sensor_type;location;lat;lon;timestamp;pressure;altitude;pressure_sealevel;temperature;humidity
10348;BME280;5220;43.192;23.284;2023-02-10T00:00:33;99065.69;;;-6.57;100.00
10348;BME280;5220;43.192;23.284;2023-02-10T00:03:00;99063.88;;;-6.61;100.00
10348;BME280;5220;43.192;23.284;2023-02-10T00:05:26;99058.00;;;-6.60;100.00
10348;BME280;5220;43.192;23.284;2023-02-10T00:07:54;99064.94;;;-6.83;100.00
10348;BME280;5220;43.192;23.284;2023-02-10T00:10:21;99061.03;;;-6.72;100.00
10348;BME280;5220;43.192;23.284;2023-02-10T00:12:48;99061.63;;;-6.80;100.00
10348;BME280;5220;43.192;23.284;2023-02-10T00:15:15;99056.06;;;-6.69;100.00
10348;BME280;5220;43.192;23.284;2023-02-10T00:17:41;99050.72;;;-7.07;100.00
10348;BME280;5220;43.192;23.284;2023-02-10T00:20:09;99049.78;;;-6.81;100.00
10348;BME280;5220;43.192;23.284;2023-02-10T00:22:36;99053.78;;;-6.60;100.00
10348;BME280;5220;43.192;23.284;2023-02-10T00:25:04;99052.59;;;-6.72;100.00
10348;BME280;5220;43.192;23.284;2023-02-10T00:27:31;99051.78;;;-6.71;100.00
10348;BME280;5220;43.192;23.284;2023-02-10T00:29:58;99042.19;;;-6.81;100.00
10348;BME280;5220;43.192;23.284;2023-02-10T00:32:24;99044.41;;;-6.64;100.00
10348;BME280;5220;43.192;23.284;2023-02-10T00:34:51;99043.31;;;-6.73;100.00
10348;BME280;5220;43.192;23.284;2023-02-10T00:37:18;99037.94;;;-6.54;100.00
10348;BME280;5220;43.192;23.284;2023-02-10T00:39:45;99046.19;;;-6.89;100.00
10348;BME280;5220;43.192;23.284;2023-02-10T00:42:13;99032.69;;;-6.90;100.00
10348;BME280;5220;43.192;23.284;2023-02-10T00:44:39;99040.28;;;-6.90;100.00
10348;BME280;5220;43.192;23.284;2023-02-10T00:47:06;99034.69;;;-6.78;100.00
10348;BME280;5220;43.192;23.284;2023-02-10T00:49:33;99025.28;;;-6.84;100.00
10348;BME280;5220;43.192;23.284;2023-02-10T00:51:59;99025.69;;;-6.69;100.00
10348;BME280;5220;43.192;23.284;2023-02-10T00:54:26;99025.75;;;-6.67;100.00
10348;BME280;5220;43.192;23.284;2023-02-10T00:56:53;99016.06;;;-6.82;100.00
10348;BME280;5220;43.192;23.284;2023-02-10T00:59:21;99014.97;;;-6.90;100.00
10348;BME280;5220;43.192;23.284;2023-02-10T01:01:48;99017.69;;;-6.84;100.00
10348;BME280;5220;43.192;23.284;2023-02-10T01:04:15;99005.03;;;-6.84;100.00
10348;BME280;5220;43.192;23.284;2023-02-10T01:06:41;99000.03;;;-6.82;100.00
10348;BME280;5220;43.192;23.284;2023-02-10T01:09:09;99001.19;;;-6.71;100.00
10348;BME280;5220;43.192;23.284;2023-02-10T01:11:36;98996.97;;;-6.71;100.00
10348;BME280;5220;43.192;23.284;2023-02-10T01:14:03;98991.94;;;-6.69;100.00
10348;BME280;5220;43.192;23.284;2023-02-10T01:16:31;98990.88;;;-6.79;100.00
10348;BME280;5220;43.192;23.284;2023-02-10T01:18:58;98991.03;;;-6.73;100.00
10348;BME280;5220;43.192;23.284;2023-02-10T01:21:26;98985.13;;;-6.72;100.00
10348;BME280;5220;43.192;23.284;2023-02-10T01:23:52;98983.47;;;-6.71;100.00
10348;BME280;5220;43.192;23.284;2023-02-10T01:26:19;98970.81;;;-6.71;100.00
10348;BME280;5220;43.192;23.284;2023-02-10T01:28:46;98971.03;;;-7.23;100.00
10348;BME280;5220;43.192;23.284;2023-02-10T01:31:15;98975.97;;;-6.98;100.00
10348;BME280;5220;43.192;23.284;2023-02-10T01:33:44;98969.53;;;-6.87;100.00
10348;BME280;5220;43.192;23.284;2023-02-10T01:36:12;98967.53;;;-6.98;100.00
10348;BME280;5220;43.192;23.284;2023-02-10T01:38:39;98966.41;;;-6.78;100.00
10348;BME280;5220;43.192;23.284;2023-02-10T01:41:08;98962.41;;;-7.00;100.00
10348;BME280;5220;43.192;23.284;2023-02-10T01:43:54;98956.78;;;-6.91;100.00
10348;BME280;5220;43.192;23.284;2023-02-10T01:46:21;98947.06;;;-6.76;100.00
10348;BME280;5220;43.192;23.284;2023-02-10T01:48:50;98940.91;;;-6.86;100.00
10348;BME280;5220;43.192;23.284;2023-02-10T01:51:19;98938.94;;;-6.96;100.00
10348;BME280;5220;43.192;23.284;2023-02-10T01:53:49;98946.53;;;-6.96;100.00
10348;BME280;5220;43.192;23.284;2023-02-10T01:56:16;98942.03;;;-7.06;100.00
10348;BME280;5220;43.192;23.284;2023-02-10T01:58:43;98937.81;;;-7.05;100.00
10348;BME280;5220;43.192;23.284;2023-02-10T02:01:10;98930.03;;;-7.13;100.00
10348;BME280;5220;43.192;23.284;2023-02-10T02:03:37;98923.81;;;-6.94;100.00
10348;BME280;5220;43.192;23.284;2023-02-10T02:06:08;98926.34;;;-7.24;100.00
10348;BME280;5220;43.192;23.284;2023-02-10T02:08:36;98917.81;;;-7.57;100.00
10348;BME280;5220;43.192;23.284;2023-02-10T02:11:21;98926.78;;;-7.39;100.00
10348;BME280;5220;43.192;23.284;2023-02-10T02:14:10;98921.09;;;-7.32;100.00
10348;BME280;5220;43.192;23.284;2023-02-10T02:16:52;98920.69;;;-7.45;100.00
10348;BME280;5220;43.192;23.284;2023-02-10T02:22:59;98926.25;;;-7.27;100.00
10348;BME280;5220;43.192;23.284;2023-02-10T02:25:48;98922.53;;;-7.10;100.00
10348;BME280;5220;43.192;23.284;2023-02-10T02:28:25;98917.69;;;-7.32;100.00
10348;BME280;5220;43.192;23.284;2023-02-10T02:33:56;98914.13;;;-7.09;100.00
10348;BME280;5220;43.192;23.284;2023-02-10T02:36:27;98912.97;;;-7.20;100.00
10348;BME280;5220;43.192;23.284;2023-02-10T02:38:59;98905.81;;;-7.05;100.00
10348;BME280;5220;43.192;23.284;2023-02-10T02:41:29;98911.34;;;-6.87;100.00
10348;BME280;5220;43.192;23.284;2023-02-10T02:43:57;98913.09;;;-6.84;100.00
10348;BME280;5220;43.192;23.284;2023-02-10T02:46:29;98913.25;;;-6.78;100.00
10348;BME280;5220;43.192;23.284;2023-02-10T02:49:05;98901.31;;;-6.84;100.00
10348;BME280;5220;43.192;23.284;2023-02-10T02:51:43;98905.56;;;-7.14;100.00
10348;BME280;5220;43.192;23.284;2023-02-10T02:54:21;98906.81;;;-7.30;100.00
10348;BME280;5220;43.192;23.284;2023-02-10T02:56:55;98915.44;;;-7.23;100.00
10348;BME280;5220;43.192;23.284;2023-02-10T02:59:32;98912.28;;;-7.15;100.00
10348;BME280;5220;43.192;23.284;2023-02-10T03:02:03;98905.59;;;-7.72;100.00
10348;BME280;5220;43.192;23.284;2023-02-10T03:04:33;98913.56;;;-7.58;100.00
10348;BME280;5220;43.192;23.284;2023-02-10T03:07:01;98918.09;;;-7.47;100.00
10348;BME280;5220;43.192;23.284;2023-02-10T03:09:28;98916.44;;;-7.46;100.00
10348;BME280;5220;43.192;23.284;2023-02-10T03:11:55;98913.25;;;-7.69;100.00
10348;BME280;5220;43.192;23.284;2023-02-10T03:14:22;98912.22;;;-7.76;100.00
10348;BME280;5220;43.192;23.284;2023-02-10T03:16:49;98912.13;;;-7.50;100.00
10348;BME280;5220;43.192;23.284;2023-02-10T03:19:16;98915.00;;;-7.38;100.00
10348;BME280;5220;43.192;23.284;2023-02-10T03:21:44;98907.63;;;-7.31;100.00
10348;BME280;5220;43.192;23.284;2023-02-10T03:24:12;98908.66;;;-7.24;100.00
10348;BME280;5220;43.192;23.284;2023-02-10T03:26:39;98910.81;;;-7.38;100.00
10348;BME280;5220;43.192;23.284;2023-02-10T03:29:06;98904.91;;;-7.37;100.00
10348;BME280;5220;43.192;23.284;2023-02-10T03:31:32;98903.22;;;-7.38;100.00
10348;BME280;5220;43.192;23.284;2023-02-10T03:33:59;98905.06;;;-7.32;100.00
10348;BME280;5220;43.192;23.284;2023-02-10T03:36:26;98910.13;;;-7.31;100.00
10348;BME280;5220;43.192;23.284;2023-02-10T03:38:54;98906.72;;;-7.33;100.00
10348;BME280;5220;43.192;23.284;2023-02-10T03:41:21;98909.03;;;-7.40;100.00
10348;BME280;5220;43.192;23.284;2023-02-10T03:43:47;98903.72;;;-7.49;100.00
10348;BME280;5220;43.192;23.284;2023-02-10T03:46:14;98900.56;;;-7.42;100.00
10348;BME280;5220;43.192;23.284;2023-02-10T03:48:41;98905.59;;;-7.42;100.00
10348;BME280;5220;43.192;23.284;2023-02-10T03:51:08;98897.84;;;-7.48;100.00
10348;BME280;5220;43.192;23.284;2023-02-10T03:53:35;98899.25;;;-7.58;100.00
10348;BME280;5220;43.192;23.284;2023-02-10T03:56:04;98903.09;;;-7.71;100.00
10348;BME280;5220;43.192;23.284;2023-02-10T03:58:31;98896.31;;;-7.72;100.00
10348;BME280;5220;43.192;23.284;2023-02-10T04:00:57;98890.38;;;-7.74;100.00
10348;BME280;5220;43.192;23.284;2023-02-10T04:03:24;98898.03;;;-7.71;100.00
10348;BME280;5220;43.192;23.284;2023-02-10T04:05:51;98898.66;;;-7.49;100.00
10348;BME280;5220;43.192;23.284;2023-02-10T04:08:18;98906.97;;;-7.53;100.00
10348;BME280;5220;43.192;23.284;2023-02-10T04:10:44;98905.84;;;-7.35;100.00
10348;BME280;5220;43.192;23.284;2023-02-10T04:13:13;98901.31;;;-7.45;100.00
10348;BME280;5220;43.192;23.284;2023-02-10T04:15:39;98907.53;;;-7.34;100.00
10348;BME280;5220;43.192;23.284;2023-02-10T04:18:06;98904.47;;;-7.22;100.00
10348;BME280;5220;43.192;23.284;2023-02-10T04:20:33;98907.34;;;-7.41;100.00
10348;BME280;5220;43.192;23.284;2023-02-10T04:22:59;98914.56;;;-7.82;100.00
10348;BME280;5220;43.192;23.284;2023-02-10T04:25:26;98916.59;;;-7.97;100.00
10348;BME280;5220;43.192;23.284;2023-02-10T04:27:53;98910.75;;;-7.96;100.00
10348;BME280;5220;43.192;23.284;2023-02-10T04:30:21;98921.22;;;-7.84;100.00
10348;BME280;5220;43.192;23.284;2023-02-10T04:32:48;98916.41;;;-7.76;100.00
10348;BME280;5220;43.192;23.284;2023-02-10T04:35:14;98919.66;;;-8.07;100.00
10348;BME280;5220;43.192;23.284;2023-02-10T04:37:41;98921.91;;;-8.16;100.00
10348;BME280;5220;43.192;23.284;2023-02-10T04:40:09;98925.50;;;-8.08;100.00
10348;BME280;5220;43.192;23.284;2023-02-10T04:42:35;98919.44;;;-7.86;100.00
10348;BME280;5220;43.192;23.284;2023-02-10T04:45:02;98918.22;;;-7.72;100.00
10348;BME280;5220;43.192;23.284;2023-02-10T04:47:30;98921.13;;;-7.58;100.00
10348;BME280;5220;43.192;23.284;2023-02-10T04:49:57;98921.22;;;-7.84;100.00
10348;BME280;5220;43.192;23.284;2023-02-10T04:52:24;98917.19;;;-7.77;100.00
10348;BME280;5220;43.192;23.284;2023-02-10T04:54:50;98921.78;;;-7.92;100.00
10348;BME280;5220;43.192;23.284;2023-02-10T04:57:17;98923.59;;;-7.88;100.00
10348;BME280;5220;43.192;23.284;2023-02-10T04:59:44;98921.84;;;-7.91;100.00
10348;BME280;5220;43.192;23.284;2023-02-10T05:02:10;98924.25;;;-7.67;100.00
10348;BME280;5220;43.192;23.284;2023-02-10T05:04:39;98920.69;;;-7.74;100.00
10348;BME280;5220;43.192;23.284;2023-02-10T05:07:05;98918.94;;;-7.76;100.00
10348;BME280;5220;43.192;23.284;2023-02-10T05:09:32;98930.06;;;-7.70;100.00
10348;BME280;5220;43.192;23.284;2023-02-10T05:11:59;98921.13;;;-7.87;100.00
10348;BME280;5220;43.192;23.284;2023-02-10T05:14:26;98916.59;;;-7.97;100.00
10348;BME280;5220;43.192;23.284;2023-02-10T05:16:52;98920.41;;;-7.83;100.00
10348;BME280;5220;43.192;23.284;2023-02-10T05:19:19;98919.19;;;-7.94;100.00
10348;BME280;5220;43.192;23.284;2023-02-10T05:21:47;98921.78;;;-7.92;100.00
10348;BME280;5220;43.192;23.284;2023-02-10T05:24:14;98922.16;;;-7.80;100.00
10348;BME280;5220;43.192;23.284;2023-02-10T05:26:41;98938.53;;;-7.68;100.00
10348;BME280;5220;43.192;23.284;2023-02-10T05:29:08;98934.72;;;-8.10;100.00
10348;BME280;5220;43.192;23.284;2023-02-10T05:31:35;98933.72;;;-7.88;100.00
10348;BME280;5220;43.192;23.284;2023-02-10T05:34:01;98929.03;;;-8.03;100.00
10348;BME280;5220;43.192;23.284;2023-02-10T05:36:28;98939.47;;;-7.92;100.00
10348;BME280;5220;43.192;23.284;2023-02-10T05:38:56;98941.69;;;-7.75;100.00
10348;BME280;5220;43.192;23.284;2023-02-10T05:41:40;98945.06;;;-7.76;100.00
10348;BME280;5220;43.192;23.284;2023-02-10T05:44:07;98947.06;;;-7.64;100.00
10348;BME280;5220;43.192;23.284;2023-02-10T05:46:34;98952.03;;;-7.67;100.00
10348;BME280;5220;43.192;23.284;2023-02-10T05:49:00;98957.59;;;-7.79;100.00
10348;BME280;5220;43.192;23.284;2023-02-10T05:51:27;98958.75;;;-7.68;100.00
10348;BME280;5220;43.192;23.284;2023-02-10T05:53:55;98969.94;;;-7.59;100.00
10348;BME280;5220;43.192;23.284;2023-02-10T05:56:22;98964.09;;;-7.58;100.00
10348;BME280;5220;43.192;23.284;2023-02-10T05:58:49;98976.81;;;-7.55;100.00
10348;BME280;5220;43.192;23.284;2023-02-10T06:01:15;98971.69;;;-7.85;100.00
10348;BME280;5220;43.192;23.284;2023-02-10T06:03:42;98974.59;;;-7.73;100.00
10348;BME280;5220;43.192;23.284;2023-02-10T06:06:09;98973.41;;;-7.56;100.00
10348;BME280;5220;43.192;23.284;2023-02-10T06:08:36;98974.16;;;-7.60;100.00
10348;BME280;5220;43.192;23.284;2023-02-10T06:11:04;98982.56;;;-7.59;100.00
10348;BME280;5220;43.192;23.284;2023-02-10T06:13:31;98978.66;;;-7.50;100.00
10348;BME280;5220;43.192;23.284;2023-02-10T06:15:57;98982.09;;;-7.48;100.00
10348;BME280;5220;43.192;23.284;2023-02-10T06:18:26;98993.44;;;-7.62;100.00
10348;BME280;5220;43.192;23.284;2023-02-10T06:20:53;98980.66;;;-7.40;100.00
10348;BME280;5220;43.192;23.284;2023-02-10T06:23:20;98987.56;;;-7.34;100.00
10348;BME280;5220;43.192;23.284;2023-02-10T06:25:46;98990.66;;;-7.43;100.00
10348;BME280;5220;43.192;23.284;2023-02-10T06:28:15;98991.91;;;-7.30;100.00
10348;BME280;5220;43.192;23.284;2023-02-10T06:30:41;99004.41;;;-7.35;100.00
10348;BME280;5220;43.192;23.284;2023-02-10T06:33:08;99002.66;;;-7.64;100.00
10348;BME280;5220;43.192;23.284;2023-02-10T06:35:35;98997.03;;;-7.82;100.00
10348;BME280;5220;43.192;23.284;2023-02-10T06:38:02;99001.38;;;-7.51;100.00
10348;BME280;5220;43.192;23.284;2023-02-10T06:40:28;99005.72;;;-7.19;100.00
10348;BME280;5220;43.192;23.284;2023-02-10T06:42:55;98996.03;;;-7.04;100.00
10348;BME280;5220;43.192;23.284;2023-02-10T06:45:23;99004.59;;;-6.99;100.00
10348;BME280;5220;43.192;23.284;2023-02-10T06:47:50;98995.63;;;-6.88;100.00
10348;BME280;5220;43.192;23.284;2023-02-10T06:50:17;99000.91;;;-6.82;100.00
10348;BME280;5220;43.192;23.284;2023-02-10T06:52:43;99007.97;;;-6.69;100.00
10348;BME280;5220;43.192;23.284;2023-02-10T06:55:10;98999.97;;;-6.84;100.00
10348;BME280;5220;43.192;23.284;2023-02-10T06:57:37;99000.56;;;-6.63;100.00
10348;BME280;5220;43.192;23.284;2023-02-10T07:00:05;99007.81;;;-6.45;100.00
10348;BME280;5220;43.192;23.284;2023-02-10T07:02:34;99008.47;;;-6.50;100.00
10348;BME280;5220;43.192;23.284;2023-02-10T07:05:01;99005.03;;;-6.21;100.00
10348;BME280;5220;43.192;23.284;2023-02-10T07:07:29;99010.47;;;-6.08;100.00
10348;BME280;5220;43.192;23.284;2023-02-10T07:09:56;99007.31;;;-5.97;100.00
10348;BME280;5220;43.192;23.284;2023-02-10T07:12:23;98997.69;;;-5.76;100.00
10348;BME280;5220;43.192;23.284;2023-02-10T07:14:50;98998.22;;;-5.54;100.00
10348;BME280;5220;43.192;23.284;2023-02-10T07:17:17;99001.13;;;-5.37;100.00
10348;BME280;5220;43.192;23.284;2023-02-10T07:19:45;98999.97;;;-5.14;100.00
10348;BME280;5220;43.192;23.284;2023-02-10T07:22:11;98991.00;;;-4.98;100.00
10348;BME280;5220;43.192;23.284;2023-02-10T07:24:38;98992.22;;;-4.79;100.00
10348;BME280;5220;43.192;23.284;2023-02-10T07:27:05;98986.63;;;-4.62;100.00
10348;BME280;5220;43.192;23.284;2023-02-10T07:29:32;98988.66;;;-4.46;100.00
10348;BME280;5220;43.192;23.284;2023-02-10T07:31:58;98989.00;;;-4.26;100.00
10348;BME280;5220;43.192;23.284;2023-02-10T07:34:25;98989.28;;;-4.09;100.00
10348;BME280;5220;43.192;23.284;2023-02-10T07:36:53;98977.75;;;-3.91;100.00
10348;BME280;5220;43.192;23.284;2023-02-10T07:39:20;98977.97;;;-3.77;100.00
10348;BME280;5220;43.192;23.284;2023-02-10T07:41:47;98974.84;;;-3.59;100.00
10348;BME280;5220;43.192;23.284;2023-02-10T07:44:14;98975.94;;;-3.42;100.00
10348;BME280;5220;43.192;23.284;2023-02-10T07:46:40;98977.91;;;-3.24;100.00
10348;BME280;5220;43.192;23.284;2023-02-10T07:49:08;98974.75;;;-3.08;100.00
10348;BME280;5220;43.192;23.284;2023-02-10T07:51:34;98968.97;;;-2.94;100.00
10348;BME280;5220;43.192;23.284;2023-02-10T07:54:03;98975.94;;;-2.79;100.00
10348;BME280;5220;43.192;23.284;2023-02-10T07:56:30;98976.16;;;-2.62;100.00
10348;BME280;5220;43.192;23.284;2023-02-10T07:58:57;98975.06;;;-2.01;100.00
10348;BME280;5220;43.192;23.284;2023-02-10T08:01:24;98976.59;;;-2.17;100.00
10348;BME280;5220;43.192;23.284;2023-02-10T08:03:51;98973.28;;;-2.08;100.00
10348;BME280;5220;43.192;23.284;2023-02-10T08:06:19;98974.19;;;-2.03;100.00
10348;BME280;5220;43.192;23.284;2023-02-10T08:08:46;98970.91;;;-1.89;100.00
10348;BME280;5220;43.192;23.284;2023-02-10T08:11:15;98980.38;;;-1.74;100.00
10348;BME280;5220;43.192;23.284;2023-02-10T08:13:42;98975.44;;;-1.56;100.00
10348;BME280;5220;43.192;23.284;2023-02-10T08:16:09;98978.72;;;-1.72;100.00
10348;BME280;5220;43.192;23.284;2023-02-10T08:18:36;98974.84;;;-2.24;100.00
10348;BME280;5220;43.192;23.284;2023-02-10T08:21:03;98976.88;;;-2.73;100.00
10348;BME280;5220;43.192;23.284;2023-02-10T08:23:30;98973.16;;;-2.25;100.00
10348;BME280;5220;43.192;23.284;2023-02-10T08:25:57;98973.00;;;-2.39;100.00
10348;BME280;5220;43.192;23.284;2023-02-10T08:28:25;98977.25;;;-2.38;100.00
10348;BME280;5220;43.192;23.284;2023-02-10T08:30:52;98982.69;;;-2.04;100.00
10348;BME280;5220;43.192;23.284;2023-02-10T08:33:18;98982.03;;;-1.82;100.00
10348;BME280;5220;43.192;23.284;2023-02-10T08:35:45;98982.97;;;-1.71;100.00
10348;BME280;5220;43.192;23.284;2023-02-10T08:38:12;98977.75;;;-1.88;100.00
10348;BME280;5220;43.192;23.284;2023-02-10T08:40:38;98983.19;;;-1.42;100.00
10348;BME280;5220;43.192;23.284;2023-02-10T08:43:05;98977.50;;;-0.97;100.00
10348;BME280;5220;43.192;23.284;2023-02-10T08:45:33;98978.25;;;-1.17;100.00
10348;BME280;5220;43.192;23.284;2023-02-10T08:48:00;98974.72;;;-1.34;100.00
10348;BME280;5220;43.192;23.284;2023-02-10T08:50:27;98980.59;;;-1.50;100.00
10348;BME280;5220;43.192;23.284;2023-02-10T08:52:54;98977.38;;;-1.20;100.00
10348;BME280;5220;43.192;23.284;2023-02-10T08:55:21;98987.50;;;-1.31;100.00
10348;BME280;5220;43.192;23.284;2023-02-10T08:57:48;98979.28;;;-0.84;100.00
10348;BME280;5220;43.192;23.284;2023-02-10T09:02:43;98974.28;;;-0.54;100.00
10348;BME280;5220;43.192;23.284;2023-02-10T09:05:09;98970.06;;;-0.26;100.00
10348;BME280;5220;43.192;23.284;2023-02-10T09:07:36;98965.81;;;-0.15;100.00
10348;BME280;5220;43.192;23.284;2023-02-10T09:10:04;98965.84;;;-0.20;100.00
10348;BME280;5220;43.192;23.284;2023-02-10T09:12:30;98956.47;;;-0.03;100.00
10348;BME280;5220;43.192;23.284;2023-02-10T09:14:58;98959.03;;;0.16;100.00
10348;BME280;5220;43.192;23.284;2023-02-10T09:17:25;98954.78;;;0.36;100.00
10348;BME280;5220;43.192;23.284;2023-02-10T09:19:53;98956.47;;;0.44;100.00
10348;BME280;5220;43.192;23.284;2023-02-10T09:22:20;98952.19;;;0.51;100.00
10348;BME280;5220;43.192;23.284;2023-02-10T09:24:46;98954.78;;;0.27;100.00
10348;BME280;5220;43.192;23.284;2023-02-10T09:27:15;98955.63;;;0.51;100.00
10348;BME280;5220;43.192;23.284;2023-02-10T09:29:42;98954.75;;;0.42;99.21
10348;BME280;5220;43.192;23.284;2023-02-10T09:32:08;98946.22;;;0.35;100.00
10348;BME280;5220;43.192;23.284;2023-02-10T09:34:36;98946.22;;;0.50;100.00
10348;BME280;5220;43.192;23.284;2023-02-10T09:37:04;98951.34;;;0.29;100.00
10348;BME280;5220;43.192;23.284;2023-02-10T09:39:31;98953.06;;;0.59;100.00
10348;BME280;5220;43.192;23.284;2023-02-10T09:42:08;98950.44;;;0.77;100.00
10348;BME280;5220;43.192;23.284;2023-02-10T09:44:38;98948.69;;;0.94;99.47
10348;BME280;5220;43.192;23.284;2023-02-10T09:47:33;98957.16;;;1.10;99.00
10348;BME280;5220;43.192;23.284;2023-02-10T09:50:20;98953.78;;;1.08;96.95
10348;BME280;5220;43.192;23.284;2023-02-10T09:53:04;98952.00;;;1.19;98.06
10348;BME280;5220;43.192;23.284;2023-02-10T09:55:38;98940.91;;;1.20;97.39
10348;BME280;5220;43.192;23.284;2023-02-10T09:58:13;98946.13;;;0.94;99.88
10348;BME280;5220;43.192;23.284;2023-02-10T10:00:42;98940.09;;;1.09;100.00
10348;BME280;5220;43.192;23.284;2023-02-10T10:03:13;98938.44;;;0.96;99.93
10348;BME280;5220;43.192;23.284;2023-02-10T10:05:48;98937.53;;;1.14;97.17
10348;BME280;5220;43.192;23.284;2023-02-10T10:08:25;98931.53;;;1.18;94.82
10348;BME280;5220;43.192;23.284;2023-02-10T10:10:56;98934.13;;;1.12;99.11
10348;BME280;5220;43.192;23.284;2023-02-10T10:13:28;98918.69;;;1.19;98.75
10348;BME280;5220;43.192;23.284;2023-02-10T10:16:15;98919.47;;;1.35;96.82
10348;BME280;5220;43.192;23.284;2023-02-10T10:18:52;98917.75;;;1.43;96.84
10348;BME280;5220;43.192;23.284;2023-02-10T10:21:25;98915.16;;;1.41;96.23
10348;BME280;5220;43.192;23.284;2023-02-10T10:24:08;98913.41;;;1.52;98.26
10348;BME280;5220;43.192;23.284;2023-02-10T10:26:47;98906.47;;;1.67;94.86
10348;BME280;5220;43.192;23.284;2023-02-10T10:29:21;98909.06;;;1.62;93.97
10348;BME280;5220;43.192;23.284;2023-02-10T10:31:56;98903.16;;;1.46;94.99
10348;BME280;5220;43.192;23.284;2023-02-10T10:34:27;98899.66;;;1.64;92.07
10348;BME280;5220;43.192;23.284;2023-02-10T10:36:57;98902.13;;;1.75;94.32
10348;BME280;5220;43.192;23.284;2023-02-10T10:39:29;98900.38;;;1.83;94.64
10348;BME280;5220;43.192;23.284;2023-02-10T10:42:01;98890.06;;;1.87;92.78
10348;BME280;5220;43.192;23.284;2023-02-10T10:44:30;98891.03;;;1.74;95.80
10348;BME280;5220;43.192;23.284;2023-02-10T10:47:04;98884.97;;;1.86;93.13
10348;BME280;5220;43.192;23.284;2023-02-10T10:49:34;98884.91;;;1.90;91.84
10348;BME280;5220;43.192;23.284;2023-02-10T10:52:01;98880.06;;;1.51;92.02
10348;BME280;5220;43.192;23.284;2023-02-10T10:54:30;98884.97;;;1.81;94.89
10348;BME280;5220;43.192;23.284;2023-02-10T10:57:00;98873.75;;;1.94;95.19
10348;BME280;5220;43.192;23.284;2023-02-10T10:59:31;98880.63;;;1.92;93.44
10348;BME280;5220;43.192;23.284;2023-02-10T11:02:10;98878.00;;;1.97;94.86
10348;BME280;5220;43.192;23.284;2023-02-10T11:04:38;98883.03;;;2.13;87.57
10348;BME280;5220;43.192;23.284;2023-02-10T11:07:09;98882.94;;;2.24;90.20
10348;BME280;5220;43.192;23.284;2023-02-10T11:09:40;98875.16;;;2.32;89.17
10348;BME280;5220;43.192;23.284;2023-02-10T11:12:16;98879.84;;;1.86;89.33
10348;BME280;5220;43.192;23.284;2023-02-10T11:14:45;98878.75;;;2.14;92.33
10348;BME280;5220;43.192;23.284;2023-02-10T11:17:22;98880.34;;;2.27;85.42
10348;BME280;5220;43.192;23.284;2023-02-10T11:19:55;98869.00;;;2.48;80.93
10348;BME280;5220;43.192;23.284;2023-02-10T11:22:23;98862.66;;;2.78;80.71
10348;BME280;5220;43.192;23.284;2023-02-10T11:24:53;98857.38;;;2.91;81.44
10348;BME280;5220;43.192;23.284;2023-02-10T11:27:20;98855.94;;;2.67;84.56
10348;BME280;5220;43.192;23.284;2023-02-10T11:29:49;98862.25;;;2.38;88.21
10348;BME280;5220;43.192;23.284;2023-02-10T11:32:20;98851.66;;;2.65;90.49
10348;BME280;5220;43.192;23.284;2023-02-10T11:34:49;98857.72;;;2.61;85.51
10348;BME280;5220;43.192;23.284;2023-02-10T11:37:23;98856.69;;;2.76;83.06
10348;BME280;5220;43.192;23.284;2023-02-10T11:39:53;98856.13;;;2.49;87.37
10348;BME280;5220;43.192;23.284;2023-02-10T11:42:22;98845.81;;;2.54;85.12
10348;BME280;5220;43.192;23.284;2023-02-10T11:44:54;98846.31;;;2.86;83.43
10348;BME280;5220;43.192;23.284;2023-02-10T11:47:21;98847.06;;;2.93;86.21
10348;BME280;5220;43.192;23.284;2023-02-10T11:49:48;98841.00;;;2.97;87.66
10348;BME280;5220;43.192;23.284;2023-02-10T11:52:17;98836.31;;;2.60;88.54
10348;BME280;5220;43.192;23.284;2023-02-10T11:54:46;98834.81;;;2.40;91.65
10348;BME280;5220;43.192;23.284;2023-02-10T11:57:24;98838.25;;;2.40;94.54
10348;BME280;5220;43.192;23.284;2023-02-10T12:00:16;98839.06;;;2.44;92.62
10348;BME280;5220;43.192;23.284;2023-02-10T12:05:53;98831.03;;;2.71;89.59
10348;BME280;5220;43.192;23.284;2023-02-10T12:08:27;98823.97;;;2.90;93.56
10348;BME280;5220;43.192;23.284;2023-02-10T12:11:03;98829.13;;;2.88;88.64
10348;BME280;5220;43.192;23.284;2023-02-10T12:13:39;98811.75;;;3.05;90.22
10348;BME280;5220;43.192;23.284;2023-02-10T12:16:15;98819.75;;;2.84;93.02
10348;BME280;5220;43.192;23.284;2023-02-10T12:18:52;98818.00;;;2.88;90.49
10348;BME280;5220;43.192;23.284;2023-02-10T12:21:42;98813.84;;;2.79;87.50
10348;BME280;5220;43.192;23.284;2023-02-10T12:24:23;98813.66;;;2.91;88.43
10348;BME280;5220;43.192;23.284;2023-02-10T12:26:57;98808.38;;;3.03;87.59
10348;BME280;5220;43.192;23.284;2023-02-10T12:29:40;98803.94;;;3.13;87.57
10348;BME280;5220;43.192;23.284;2023-02-10T12:32:16;98804.72;;;3.19;86.39
10348;BME280;5220;43.192;23.284;2023-02-10T12:34:57;98809.03;;;2.52;86.91
10348;BME280;5220;43.192;23.284;2023-02-10T12:37:36;98798.47;;;2.75;87.78
10348;BME280;5220;43.192;23.284;2023-02-10T12:40:27;98795.28;;;3.20;85.74
10348;BME280;5220;43.192;23.284;2023-02-10T12:43:03;98796.81;;;3.33;81.36
10348;BME280;5220;43.192;23.284;2023-02-10T12:45:42;98788.06;;;3.43;80.89
10348;BME280;5220;43.192;23.284;2023-02-10T12:48:21;98796.34;;;3.05;85.31
10348;BME280;5220;43.192;23.284;2023-02-10T12:51:06;98788.75;;;2.98;85.33
10348;BME280;5220;43.192;23.284;2023-02-10T12:53:40;98792.41;;;3.40;85.33
10348;BME280;5220;43.192;23.284;2023-02-10T12:56:12;98789.88;;;3.38;87.84
10348;BME280;5220;43.192;23.284;2023-02-10T12:58:43;98778.28;;;3.66;79.64
10348;BME280;5220;43.192;23.284;2023-02-10T13:01:17;98772.69;;;3.92;77.48
10348;BME280;5220;43.192;23.284;2023-02-10T13:03:49;98772.22;;;3.70;76.10
10348;BME280;5220;43.192;23.284;2023-02-10T13:06:23;98767.31;;;4.04;75.18
10348;BME280;5220;43.192;23.284;2023-02-10T13:08:53;98778.16;;;4.21;74.49
10348;BME280;5220;43.192;23.284;2023-02-10T13:11:33;98773.63;;;4.34;72.20
10348;BME280;5220;43.192;23.284;2023-02-10T13:14:05;98776.09;;;3.94;72.17
10348;BME280;5220;43.192;23.284;2023-02-10T13:16:37;98777.34;;;3.17;78.44
10348;BME280;5220;43.192;23.284;2023-02-10T13:19:11;98772.09;;;3.21;82.08